createdAt,value
2019-02-28T00:00:20.740Z,0
2019-02-28T00:01:22.294Z,0
2019-02-28T00:02:26.337Z,0
2019-02-28T00:03:26.079Z,0
2019-02-28T00:04:20.672Z,0
2019-02-28T00:05:20.669Z,0
2019-02-28T00:06:22.205Z,0
2019-02-28T00:07:24.883Z,0
2019-02-28T00:08:20.367Z,0
2019-02-28T00:09:20.362Z,0
2019-02-28T00:10:20.346Z,0
2019-02-28T00:11:20.083Z,0
2019-02-28T00:12:23.729Z,0
2019-02-28T00:13:23.961Z,0
2019-02-28T00:14:20.541Z,0
2019-02-28T00:15:20.563Z,0
2019-02-28T00:16:20.506Z,0
2019-02-28T00:17:20.252Z,0
2019-02-28T00:18:22.547Z,0
2019-02-28T00:19:20.981Z,0
2019-02-28T00:20:20.207Z,0
2019-02-28T00:21:20.203Z,0
2019-02-28T00:22:23.625Z,0
2019-02-28T00:23:24.025Z,0
2019-02-28T00:24:20.165Z,0
2019-02-28T00:25:20.412Z,0
2019-02-28T00:26:21.485Z,0
2019-02-28T00:27:25.880Z,0
2019-02-28T00:28:23.024Z,0
2019-02-28T00:29:20.339Z,0
2019-02-28T00:30:20.339Z,0
2019-02-28T00:31:24.133Z,0
2019-02-28T00:32:21.336Z,0
2019-02-28T00:33:20.286Z,0
2019-02-28T00:34:20.264Z,0
2019-02-28T00:35:23.455Z,0
2019-02-28T00:36:23.751Z,0
2019-02-28T00:37:20.245Z,0
2019-02-28T00:38:19.726Z,0
2019-02-28T00:39:19.710Z,0
2019-02-28T00:40:20.187Z,0
2019-02-28T00:41:20.176Z,0
2019-02-28T00:42:24.702Z,0
2019-02-28T00:43:22.233Z,0
2019-02-28T00:44:19.911Z,0
2019-02-28T00:45:20.145Z,0
2019-02-28T00:46:20.508Z,0
2019-02-28T00:47:21.259Z,0
2019-02-28T00:48:23.711Z,0
2019-02-28T00:49:19.865Z,0
2019-02-28T00:50:20.058Z,0
2019-02-28T00:51:20.040Z,0
2019-02-28T00:52:19.782Z,0
2019-02-28T00:53:20.004Z,0
2019-02-28T00:54:20.012Z,0
2019-02-28T00:55:21.831Z,0
2019-02-28T00:56:22.357Z,0
2019-02-28T00:57:19.719Z,0
2019-02-28T00:58:19.942Z,0
2019-02-28T00:59:19.941Z,0
2019-02-28T01:00:19.918Z,0
2019-02-28T01:01:20.808Z,0
2019-02-28T01:02:22.427Z,0
2019-02-28T01:03:19.879Z,0
2019-02-28T01:04:19.876Z,0
2019-02-28T01:05:19.855Z,0
2019-02-28T01:06:20.141Z,0
2019-02-28T01:07:22.882Z,0
2019-02-28T01:08:22.074Z,0
2019-02-28T01:09:19.798Z,0
2019-02-28T01:10:19.862Z,0
2019-02-28T01:11:22.429Z,0
2019-02-28T01:12:26.055Z,0
2019-02-28T01:13:19.746Z,0
2019-02-28T01:14:19.251Z,0
2019-02-28T01:15:20.276Z,0
2019-02-28T01:16:23.795Z,0
2019-02-28T01:17:19.441Z,0
2019-02-28T01:18:19.427Z,0
2019-02-28T01:19:19.791Z,0
2019-02-28T01:20:24.432Z,0
2019-02-28T01:21:23.603Z,0
2019-02-28T01:22:19.627Z,0
2019-02-28T01:23:19.614Z,0
2019-02-28T01:24:19.598Z,0
2019-02-28T01:25:19.331Z,0
2019-02-28T01:26:21.851Z,0
2019-02-28T01:27:25.349Z,0
2019-02-28T01:28:19.538Z,0
2019-02-28T01:29:19.678Z,0
2019-02-28T01:30:19.284Z,0
2019-02-28T01:31:21.180Z,0
2019-02-28T01:32:22.666Z,0
2019-02-28T01:33:24.542Z,0
2019-02-28T01:34:19.467Z,0
2019-02-28T01:35:18.951Z,0
2019-02-28T01:36:24.756Z,0
2019-02-28T01:37:20.792Z,0
2019-02-28T01:38:19.407Z,0
2019-02-28T01:39:19.399Z,0
2019-02-28T01:40:19.376Z,0
2019-02-28T01:41:20.793Z,0
2019-02-28T01:42:24.423Z,0
2019-02-28T01:43:19.335Z,0
2019-02-28T01:44:19.580Z,0
2019-02-28T01:45:20.498Z,0
2019-02-28T01:46:23.847Z,0
2019-02-28T01:47:22.410Z,0
2019-02-28T01:48:19.013Z,0
2019-02-28T01:49:19.006Z,0
2019-02-28T01:50:19.237Z,0
2019-02-28T01:51:19.222Z,0
2019-02-28T01:52:19.949Z,0
2019-02-28T01:53:23.502Z,0
2019-02-28T01:54:18.939Z,0
2019-02-28T01:55:19.167Z,0
2019-02-28T01:56:18.916Z,0
2019-02-28T01:57:19.535Z,0
2019-02-28T01:58:23.543Z,0
2019-02-28T01:59:21.564Z,0
2019-02-28T02:00:19.101Z,0
2019-02-28T02:01:18.907Z,0
2019-02-28T02:02:19.081Z,0
2019-02-28T02:03:19.683Z,0
2019-02-28T02:04:22.149Z,0
2019-02-28T02:05:21.751Z,0
2019-02-28T02:06:18.524Z,0
2019-02-28T02:07:19.000Z,0
2019-02-28T02:08:18.991Z,0
2019-02-28T02:09:21.222Z,0
2019-02-28T02:10:22.238Z,0
2019-02-28T02:11:18.693Z,0
2019-02-28T02:12:18.679Z,0
2019-02-28T02:13:18.684Z,0
2019-02-28T02:14:21.221Z,0
2019-02-28T02:15:21.685Z,0
2019-02-28T02:16:18.622Z,0
2019-02-28T02:17:18.629Z,0
2019-02-28T02:18:19.581Z,0
2019-02-28T02:19:24.758Z,0
2019-02-28T02:20:18.594Z,0
2019-02-28T02:21:18.564Z,0
2019-02-28T02:22:19.421Z,0
2019-02-28T02:23:22.784Z,0
2019-02-28T02:24:18.515Z,0
2019-02-28T02:25:18.778Z,0
2019-02-28T02:26:20.649Z,0
2019-02-28T02:27:23.917Z,0
2019-02-28T02:28:17.969Z,0
2019-02-28T02:29:18.452Z,0
2019-02-28T02:30:24.723Z,0
2019-02-28T02:31:18.467Z,0
2019-02-28T02:32:18.448Z,0
2019-02-28T02:33:23.623Z,0
2019-02-28T02:34:18.654Z,0
2019-02-28T02:35:18.639Z,0
2019-02-28T02:36:23.581Z,0
2019-02-28T02:37:18.599Z,0
2019-02-28T02:38:18.356Z,0
2019-02-28T02:39:23.598Z,0
2019-02-28T02:40:22.873Z,0
2019-02-28T02:41:18.560Z,0
2019-02-28T02:42:21.064Z,0
2019-02-28T02:43:21.843Z,0
2019-02-28T02:44:18.257Z,0
2019-02-28T02:45:18.489Z,0
2019-02-28T02:46:27.160Z,0
2019-02-28T02:47:18.216Z,0
2019-02-28T02:48:18.232Z,0
2019-02-28T02:49:26.043Z,0
2019-02-28T02:50:18.500Z,0
2019-02-28T02:51:21.732Z,0
2019-02-28T02:52:18.153Z,0
2019-02-28T02:53:18.384Z,0
2019-02-28T02:54:25.354Z,0
2019-02-28T02:55:18.123Z,0
2019-02-28T02:56:18.381Z,0
2019-02-28T02:57:21.313Z,0
2019-02-28T02:58:18.310Z,0
2019-02-28T02:59:18.309Z,0
2019-02-28T03:00:22.868Z,0
2019-02-28T03:01:18.047Z,0
2019-02-28T03:02:18.014Z,0
2019-02-28T03:03:18.257Z,0
2019-02-28T03:04:26.565Z,0
2019-02-28T03:05:18.231Z,0
2019-02-28T03:06:23.565Z,0
2019-02-28T03:07:25.758Z,0
2019-02-28T03:08:17.690Z,0
2019-02-28T03:09:19.969Z,0
2019-02-28T03:10:22.653Z,0
2019-02-28T03:11:18.187Z,0
2019-02-28T03:12:18.131Z,0
2019-02-28T03:13:17.861Z,0
2019-02-28T03:14:21.909Z,0
2019-02-28T03:15:24.748Z,0
2019-02-28T03:16:18.179Z,0
2019-02-28T03:17:21.116Z,0
2019-02-28T03:18:23.009Z,0
2019-02-28T03:19:18.033Z,0
2019-02-28T03:20:18.448Z,0
2019-02-28T03:21:22.489Z,0
2019-02-28T03:22:17.998Z,0
2019-02-28T03:23:17.733Z,0
2019-02-28T03:24:24.262Z,0
2019-02-28T03:25:17.985Z,0
2019-02-28T03:26:17.951Z,0
2019-02-28T03:27:23.534Z,0
2019-02-28T03:28:18.647Z,0
2019-02-28T03:29:18.560Z,0
2019-02-28T03:30:35.627Z,0
2019-02-28T03:31:24.244Z,0
2019-02-28T03:32:17.976Z,0
2019-02-28T03:33:33.553Z,0
2019-02-28T03:34:22.619Z,0
2019-02-28T03:35:17.853Z,0
2019-02-28T03:36:21.316Z,0
2019-02-28T03:37:17.545Z,0
2019-02-28T03:38:21.733Z,0
2019-02-28T03:39:23.988Z,0
2019-02-28T03:40:17.816Z,0
2019-02-28T03:41:25.925Z,0
2019-02-28T03:42:17.713Z,0
2019-02-28T03:43:17.710Z,0
2019-02-28T03:44:24.902Z,0
2019-02-28T03:45:17.696Z,0
2019-02-28T03:46:20.737Z,0
2019-02-28T03:47:25.201Z,0
2019-02-28T03:48:17.675Z,0
2019-02-28T03:49:21.722Z,0
2019-02-28T03:50:21.847Z,0
2019-02-28T03:51:17.610Z,0
2019-02-28T03:52:17.594Z,0
2019-02-28T03:53:24.522Z,0
2019-02-28T03:54:17.569Z,0
2019-02-28T03:55:17.308Z,0
2019-02-28T03:56:21.615Z,0
2019-02-28T03:57:17.549Z,0
2019-02-28T03:58:17.527Z,0
2019-02-28T03:59:23.323Z,0
2019-02-28T04:00:17.476Z,0
2019-02-28T04:01:19.618Z,0
2019-02-28T04:02:23.489Z,0
2019-02-28T04:03:17.194Z,0
2019-02-28T04:04:21.849Z,0
2019-02-28T04:05:17.319Z,0
2019-02-28T04:06:17.148Z,0
2019-02-28T04:07:22.918Z,0
2019-02-28T04:08:17.116Z,0
2019-02-28T04:09:18.385Z,0
2019-02-28T04:10:25.254Z,0
2019-02-28T04:11:17.087Z,0
2019-02-28T04:12:18.347Z,0
2019-02-28T04:13:21.778Z,0
2019-02-28T04:14:17.298Z,0
2019-02-28T04:15:19.810Z,0
2019-02-28T04:16:18.954Z,0
2019-02-28T04:17:17.239Z,0
2019-02-28T04:18:17.853Z,0
2019-02-28T04:19:23.832Z,0
2019-02-28T04:20:17.209Z,0
2019-02-28T04:21:19.722Z,0
2019-02-28T04:22:19.385Z,0
2019-02-28T04:23:17.151Z,0
2019-02-28T04:24:22.245Z,0
2019-02-28T04:25:22.413Z,0
2019-02-28T04:26:17.175Z,0
2019-02-28T04:27:17.160Z,0
2019-02-28T04:28:24.484Z,0
2019-02-28T04:29:16.834Z,0
2019-02-28T04:30:17.963Z,0
2019-02-28T04:31:23.842Z,0
2019-02-28T04:32:17.053Z,0
2019-02-28T04:33:17.048Z,0
2019-02-28T04:34:22.765Z,0
2019-02-28T04:35:16.769Z,0
2019-02-28T04:36:16.758Z,0
2019-02-28T04:37:18.959Z,0
2019-02-28T04:38:20.177Z,0
2019-02-28T04:39:16.931Z,0
2019-02-28T04:40:16.944Z,0
2019-02-28T04:41:16.909Z,0
2019-02-28T04:42:16.896Z,0
2019-02-28T04:43:19.616Z,0
2019-02-28T04:44:20.464Z,0
2019-02-28T04:45:16.854Z,0
2019-02-28T04:46:16.593Z,0
2019-02-28T04:47:16.899Z,0
2019-02-28T04:48:20.673Z,0
2019-02-28T04:49:21.447Z,0
2019-02-28T04:50:16.529Z,0
2019-02-28T04:51:16.764Z,0
2019-02-28T04:52:18.829Z,0
2019-02-28T04:53:18.837Z,0
2019-02-28T04:54:16.475Z,0
2019-02-28T04:55:16.718Z,0
2019-02-28T04:56:20.468Z,0
2019-02-28T04:57:17.275Z,0
2019-02-28T04:58:16.667Z,0
2019-02-28T04:59:16.408Z,0
2019-02-28T05:00:16.412Z,0
2019-02-28T05:01:21.460Z,0
2019-02-28T05:02:19.634Z,0
2019-02-28T05:03:16.596Z,0
2019-02-28T05:04:16.590Z,0
2019-02-28T05:05:21.536Z,0
2019-02-28T05:06:18.249Z,0
2019-02-28T05:07:16.307Z,0
2019-02-28T05:08:16.523Z,0
2019-02-28T05:09:21.269Z,0
2019-02-28T05:10:19.188Z,0
2019-02-28T05:11:16.487Z,0
2019-02-28T05:12:16.467Z,0
2019-02-28T05:13:19.371Z,0
2019-02-28T05:14:16.195Z,0
2019-02-28T05:15:16.433Z,0
2019-02-28T05:16:19.524Z,0
2019-02-28T05:17:16.151Z,0
2019-02-28T05:18:16.384Z,0
2019-02-28T05:19:16.372Z,0
2019-02-28T05:20:19.933Z,0
2019-02-28T05:21:19.462Z,0
2019-02-28T05:22:16.076Z,0
2019-02-28T05:23:16.320Z,0
2019-02-28T05:24:17.299Z,0
2019-02-28T05:25:22.601Z,0
2019-02-28T05:26:16.286Z,0
2019-02-28T05:27:16.014Z,0
2019-02-28T05:28:17.060Z,0
2019-02-28T05:29:19.210Z,0
2019-02-28T05:30:20.571Z,0
2019-02-28T05:31:16.212Z,0
2019-02-28T05:32:16.192Z,0
2019-02-28T05:33:16.964Z,0
2019-02-28T05:34:20.450Z,0
2019-02-28T05:35:16.180Z,0
2019-02-28T05:36:16.134Z,0
2019-02-28T05:37:21.769Z,0
2019-02-28T05:38:20.606Z,0
2019-02-28T05:39:16.091Z,0
2019-02-28T05:40:16.204Z,0
2019-02-28T05:41:19.597Z,0
2019-02-28T05:42:15.796Z,0
2019-02-28T05:43:15.781Z,0
2019-02-28T05:44:16.871Z,0
2019-02-28T05:45:19.632Z,0
2019-02-28T05:46:16.004Z,0
2019-02-28T05:47:15.974Z,0
2019-02-28T05:48:15.955Z,0
2019-02-28T05:49:18.354Z,0
2019-02-28T05:50:20.354Z,0
2019-02-28T05:51:15.920Z,0
2019-02-28T05:52:15.707Z,0
2019-02-28T05:53:19.380Z,5
2019-02-28T05:54:20.983Z,5
2019-02-28T05:55:15.611Z,5
2019-02-28T05:56:15.842Z,5
2019-02-28T05:57:18.307Z,5
2019-02-28T05:58:20.886Z,5
2019-02-28T05:59:15.560Z,5
2019-02-28T06:00:15.553Z,5
2019-02-28T06:01:21.131Z,10
2019-02-28T06:02:18.847Z,10
2019-02-28T06:03:15.494Z,10
2019-02-28T06:04:15.725Z,10
2019-02-28T06:05:20.978Z,10
2019-02-28T06:06:22.262Z,10
2019-02-28T06:07:16.628Z,15
2019-02-28T06:08:15.659Z,15
2019-02-28T06:09:20.142Z,15
2019-02-28T06:10:15.638Z,15
2019-02-28T06:11:17.696Z,15
2019-02-28T06:12:18.405Z,20
2019-02-28T06:13:20.261Z,20
2019-02-28T06:14:15.579Z,20
2019-02-28T06:15:15.308Z,20
2019-02-28T06:16:20.695Z,20
2019-02-28T06:17:17.289Z,25
2019-02-28T06:18:15.531Z,25
2019-02-28T06:19:20.262Z,25
2019-02-28T06:20:19.083Z,25
2019-02-28T06:21:17.422Z,25
2019-02-28T06:22:15.465Z,30
2019-02-28T06:23:18.432Z,30
2019-02-28T06:24:17.619Z,30
2019-02-28T06:25:21.972Z,30
2019-02-28T06:26:15.422Z,30
2019-02-28T06:27:16.852Z,35
2019-02-28T06:28:16.805Z,35
2019-02-28T06:29:15.202Z,35
2019-02-28T06:30:18.253Z,35
2019-02-28T06:31:18.305Z,35
2019-02-28T06:32:16.124Z,40
2019-02-28T06:33:14.818Z,40
2019-02-28T06:34:18.709Z,40
2019-02-28T06:35:22.801Z,40
2019-02-28T06:36:14.995Z,40
2019-02-28T06:37:15.248Z,45
2019-02-28T06:38:19.172Z,45
2019-02-28T06:39:15.207Z,45
2019-02-28T06:40:15.190Z,45
2019-02-28T06:41:17.307Z,45
2019-02-28T06:42:16.633Z,45
2019-02-28T06:43:18.707Z,50
2019-02-28T06:44:15.129Z,50
2019-02-28T06:45:15.120Z,50
2019-02-28T06:46:18.167Z,50
2019-02-28T06:47:18.204Z,50
2019-02-28T06:48:15.074Z,50
2019-02-28T06:49:16.408Z,50
2019-02-28T06:50:17.813Z,55
2019-02-28T06:51:16.718Z,55
2019-02-28T06:52:14.814Z,55
2019-02-28T06:53:14.988Z,55
2019-02-28T06:54:18.010Z,55
2019-02-28T06:55:17.980Z,55
2019-02-28T06:56:16.324Z,55
2019-02-28T06:57:14.935Z,55
2019-02-28T06:58:14.670Z,60
2019-02-28T06:59:15.100Z,60
2019-02-28T07:00:20.017Z,60
2019-02-28T07:01:14.877Z,60
2019-02-28T07:02:16.087Z,60
2019-02-28T07:03:14.598Z,60
2019-02-28T07:04:18.973Z,60
2019-02-28T07:05:14.809Z,65
2019-02-28T07:06:14.806Z,65
2019-02-28T07:07:20.808Z,65
2019-02-28T07:08:14.761Z,65
2019-02-28T07:09:14.771Z,65
2019-02-28T07:10:19.135Z,65
2019-02-28T07:11:14.718Z,70
2019-02-28T07:12:15.700Z,70
2019-02-28T07:13:16.672Z,70
2019-02-28T07:14:19.587Z,70
2019-02-28T07:15:14.509Z,70
2019-02-28T07:16:14.677Z,70
2019-02-28T07:17:19.884Z,70
2019-02-28T07:18:14.621Z,70
2019-02-28T07:19:14.355Z,70
2019-02-28T07:20:16.480Z,75
2019-02-28T07:21:17.130Z,75
2019-02-28T07:22:19.113Z,75
2019-02-28T07:23:14.295Z,75
2019-02-28T07:24:14.533Z,75
2019-02-28T07:25:19.132Z,75
2019-02-28T07:26:14.278Z,75
2019-02-28T07:27:14.484Z,75
2019-02-28T07:28:14.490Z,75
2019-02-28T07:29:18.291Z,75
2019-02-28T07:30:19.949Z,80
2019-02-28T07:31:14.440Z,80
2019-02-28T07:32:14.410Z,80
2019-02-28T07:33:19.129Z,80
2019-02-28T07:34:19.253Z,80
2019-02-28T07:35:14.371Z,80
2019-02-28T07:36:18.315Z,80
2019-02-28T07:37:18.455Z,80
2019-02-28T07:38:14.348Z,80
2019-02-28T07:39:14.740Z,80
2019-02-28T07:40:20.523Z,80
2019-02-28T07:41:14.040Z,85
2019-02-28T07:42:14.029Z,85
2019-02-28T07:43:19.484Z,85
2019-02-28T07:44:13.759Z,85
2019-02-28T07:45:14.616Z,85
2019-02-28T07:46:17.520Z,85
2019-02-28T07:47:19.646Z,85
2019-02-28T07:48:13.941Z,85
2019-02-28T07:49:14.161Z,85
2019-02-28T07:50:19.587Z,85
2019-02-28T07:51:14.145Z,85
2019-02-28T07:52:13.878Z,85
2019-02-28T07:53:15.814Z,85
2019-02-28T07:54:20.262Z,85
2019-02-28T07:55:14.119Z,85
2019-02-28T07:56:17.238Z,85
2019-02-28T07:57:19.595Z,90
2019-02-28T07:58:14.040Z,90
2019-02-28T07:59:15.462Z,90
2019-02-28T08:00:19.363Z,90
2019-02-28T08:01:14.004Z,90
2019-02-28T08:02:13.996Z,90
2019-02-28T08:03:16.177Z,90
2019-02-28T08:04:17.914Z,90
2019-02-28T08:05:13.947Z,90
2019-02-28T08:06:14.969Z,90
2019-02-28T08:07:18.858Z,90
2019-02-28T08:08:13.907Z,95
2019-02-28T08:09:14.330Z,95
2019-02-28T08:10:17.942Z,95
2019-02-28T08:11:13.855Z,95
2019-02-28T08:12:14.655Z,95
2019-02-28T08:13:13.839Z,95
2019-02-28T08:14:16.988Z,95
2019-02-28T08:15:13.837Z,100
2019-02-28T08:16:13.801Z,100
2019-02-28T08:17:16.870Z,100
2019-02-28T08:18:18.849Z,100
2019-02-28T08:19:13.500Z,100
2019-02-28T08:20:13.751Z,100
2019-02-28T08:21:17.788Z,100
2019-02-28T08:22:13.706Z,100
2019-02-28T08:23:15.157Z,100
2019-02-28T08:24:15.777Z,100
2019-02-28T08:25:14.711Z,105
2019-02-28T08:26:15.429Z,105
2019-02-28T08:27:13.674Z,105
2019-02-28T08:28:13.646Z,105
2019-02-28T08:29:16.498Z,105
2019-02-28T08:30:16.217Z,105
2019-02-28T08:31:13.605Z,105
2019-02-28T08:32:17.315Z,105
2019-02-28T08:33:16.243Z,105
2019-02-28T08:34:13.304Z,105
2019-02-28T08:35:13.533Z,105
2019-02-28T08:36:19.762Z,110
2019-02-28T08:37:13.563Z,110
2019-02-28T08:38:14.066Z,110
2019-02-28T08:39:20.845Z,110
2019-02-28T08:40:17.740Z,110
2019-02-28T08:41:15.893Z,110
2019-02-28T08:42:14.458Z,110
2019-02-28T08:43:26.796Z,110
2019-02-28T08:44:13.485Z,110
2019-02-28T08:45:15.579Z,110
2019-02-28T08:46:21.018Z,110
2019-02-28T08:47:13.126Z,110
2019-02-28T08:48:15.126Z,110
2019-02-28T08:49:16.763Z,110
2019-02-28T08:50:18.868Z,110
2019-02-28T08:51:13.341Z,110
2019-02-28T08:52:16.084Z,110
2019-02-28T08:53:19.550Z,110
2019-02-28T08:54:13.296Z,110
2019-02-28T08:55:16.575Z,110
2019-02-28T08:56:18.266Z,110
2019-02-28T08:57:13.074Z,110
2019-02-28T08:58:15.892Z,110
2019-02-28T08:59:27.483Z,110
2019-02-28T09:00:13.225Z,110
2019-02-28T09:01:14.987Z,105
2019-02-28T09:02:14.482Z,105
2019-02-28T09:03:13.175Z,105
2019-02-28T09:04:14.710Z,105
2019-02-28T09:05:13.877Z,105
2019-02-28T09:06:16.692Z,105
2019-02-28T09:07:17.301Z,105
2019-02-28T09:08:13.118Z,110
2019-02-28T09:09:14.553Z,110
2019-02-28T09:10:19.028Z,110
2019-02-28T09:11:12.835Z,110
2019-02-28T09:12:13.068Z,110
2019-02-28T09:13:17.298Z,110
2019-02-28T09:14:19.869Z,110
2019-02-28T09:15:13.031Z,110
2019-02-28T09:16:16.264Z,110
2019-02-28T09:17:15.477Z,110
2019-02-28T09:18:14.509Z,110
2019-02-28T09:19:12.730Z,110
2019-02-28T09:20:17.144Z,110
2019-02-28T09:21:15.370Z,110
2019-02-28T09:22:12.692Z,110
2019-02-28T09:23:13.530Z,110
2019-02-28T09:24:16.980Z,110
2019-02-28T09:25:12.903Z,110
2019-02-28T09:26:12.784Z,115
2019-02-28T09:27:14.728Z,115
2019-02-28T09:28:17.475Z,115
2019-02-28T09:29:12.682Z,115
2019-02-28T09:30:12.359Z,115
2019-02-28T09:31:15.071Z,115
2019-02-28T09:32:19.981Z,115
2019-02-28T09:33:12.587Z,115
2019-02-28T09:34:14.083Z,115
2019-02-28T09:35:21.484Z,115
2019-02-28T09:36:12.790Z,115
2019-02-28T09:37:12.759Z,115
2019-02-28T09:38:20.603Z,115
2019-02-28T09:39:12.497Z,115
2019-02-28T09:40:12.734Z,115
2019-02-28T09:41:13.835Z,115
2019-02-28T09:42:17.252Z,115
2019-02-28T09:43:12.714Z,115
2019-02-28T09:44:14.296Z,115
2019-02-28T09:45:16.319Z,115
2019-02-28T09:46:15.521Z,115
2019-02-28T09:47:16.428Z,115
2019-02-28T09:48:12.668Z,120
2019-02-28T09:49:16.814Z,120
2019-02-28T09:50:12.378Z,120
2019-02-28T09:51:12.357Z,120
2019-02-28T09:52:15.751Z,120
2019-02-28T09:53:15.304Z,120
2019-02-28T09:54:12.569Z,120
2019-02-28T09:55:12.745Z,120
2019-02-28T09:56:16.275Z,120
2019-02-28T09:57:12.308Z,125
2019-02-28T09:58:12.298Z,120
2019-02-28T09:59:13.377Z,120
2019-02-28T10:00:16.529Z,120
2019-02-28T10:01:11.766Z,120
2019-02-28T10:02:17.530Z,120
2019-02-28T10:03:15.402Z,120
2019-02-28T10:04:12.813Z,120
2019-02-28T10:05:18.937Z,125
2019-02-28T10:06:13.361Z,130
2019-02-28T10:07:12.185Z,125
2019-02-28T10:08:14.274Z,125
2019-02-28T10:09:15.582Z,125
2019-02-28T10:10:13.850Z,125
2019-02-28T10:11:12.400Z,125
2019-02-28T10:12:17.944Z,130
2019-02-28T10:13:14.490Z,125
2019-02-28T10:14:14.263Z,125
2019-02-28T10:15:16.864Z,120
2019-02-28T10:16:13.530Z,125
2019-02-28T10:17:12.095Z,120
2019-02-28T10:18:14.566Z,120
2019-02-28T10:19:17.744Z,120
2019-02-28T10:20:12.286Z,120
2019-02-28T10:21:12.275Z,120
2019-02-28T10:22:17.074Z,120
2019-02-28T10:23:12.264Z,120
2019-02-28T10:24:12.250Z,120
2019-02-28T10:25:15.372Z,120
2019-02-28T10:26:14.246Z,120
2019-02-28T10:27:13.086Z,120
2019-02-28T10:28:12.390Z,120
2019-02-28T10:29:16.662Z,120
2019-02-28T10:30:15.469Z,120
2019-02-28T10:31:12.172Z,120
2019-02-28T10:32:15.634Z,120
2019-02-28T10:33:14.241Z,120
2019-02-28T10:34:12.201Z,120
2019-02-28T10:35:12.140Z,120
2019-02-28T10:36:17.265Z,120
2019-02-28T10:37:13.817Z,120
2019-02-28T10:38:11.854Z,120
2019-02-28T10:39:14.349Z,125
2019-02-28T10:40:14.144Z,120
2019-02-28T10:41:12.084Z,120
2019-02-28T10:42:15.316Z,120
2019-02-28T10:43:17.619Z,120
2019-02-28T10:44:12.076Z,120
2019-02-28T10:45:15.607Z,120
2019-02-28T10:46:13.304Z,120
2019-02-28T10:47:11.769Z,120
2019-02-28T10:48:13.195Z,120
2019-02-28T10:49:12.003Z,120
2019-02-28T10:50:11.741Z,120
2019-02-28T10:51:22.334Z,120
2019-02-28T10:52:11.962Z,120
2019-02-28T10:53:14.957Z,120
2019-02-28T10:54:16.669Z,120
2019-02-28T10:55:11.688Z,120
2019-02-28T10:56:11.924Z,120
2019-02-28T10:57:15.129Z,120
2019-02-28T10:58:17.445Z,120
2019-02-28T10:59:11.643Z,120
2019-02-28T11:00:11.881Z,120
2019-02-28T11:01:17.284Z,120
2019-02-28T11:02:13.499Z,120
2019-02-28T11:03:11.879Z,120
2019-02-28T11:04:16.404Z,125
2019-02-28T11:05:15.295Z,125
2019-02-28T11:06:11.830Z,120
2019-02-28T11:07:14.361Z,125
2019-02-28T11:08:20.670Z,120
2019-02-28T11:09:11.809Z,120
2019-02-28T11:10:11.805Z,125
2019-02-28T11:11:16.952Z,120
2019-02-28T11:12:11.768Z,120
2019-02-28T11:13:11.780Z,120
2019-02-28T11:14:13.650Z,120
2019-02-28T11:15:16.082Z,120
2019-02-28T11:16:11.722Z,120
2019-02-28T11:17:18.192Z,120
2019-02-28T11:18:15.786Z,125
2019-02-28T11:19:13.786Z,125
2019-02-28T11:20:21.757Z,125
2019-02-28T11:21:11.687Z,125
2019-02-28T11:22:15.152Z,125
2019-02-28T11:23:16.662Z,125
2019-02-28T11:24:11.653Z,125
2019-02-28T11:25:11.427Z,125
2019-02-28T11:26:16.256Z,125
2019-02-28T11:27:11.130Z,125
2019-02-28T11:28:11.617Z,125
2019-02-28T11:29:13.041Z,125
2019-02-28T11:30:13.155Z,125
2019-02-28T11:31:16.298Z,120
2019-02-28T11:32:11.578Z,125
2019-02-28T11:33:14.093Z,120
2019-02-28T11:34:14.992Z,120
2019-02-28T11:35:11.552Z,120
2019-02-28T11:36:11.771Z,125
2019-02-28T11:37:17.543Z,125
2019-02-28T11:38:12.205Z,125
2019-02-28T11:39:11.512Z,125
2019-02-28T11:40:13.923Z,125
2019-02-28T11:41:11.491Z,125
2019-02-28T11:42:11.484Z,125
2019-02-28T11:43:12.460Z,125
2019-02-28T11:44:15.229Z,125
2019-02-28T11:45:11.473Z,125
2019-02-28T11:46:12.621Z,125
2019-02-28T11:47:15.504Z,125
2019-02-28T11:48:12.775Z,125
2019-02-28T11:49:11.416Z,125
2019-02-28T11:50:14.708Z,125
2019-02-28T11:51:11.409Z,125
2019-02-28T11:52:11.142Z,125
2019-02-28T11:53:15.007Z,125
2019-02-28T11:54:14.756Z,125
2019-02-28T11:55:11.379Z,125
2019-02-28T11:56:11.381Z,125
2019-02-28T11:57:14.015Z,125
2019-02-28T11:58:16.238Z,120
2019-02-28T11:59:11.336Z,120
2019-02-28T12:00:11.335Z,125
2019-02-28T12:01:17.422Z,125
2019-02-28T12:02:11.319Z,130
2019-02-28T12:03:12.824Z,130
2019-02-28T12:04:11.285Z,135
2019-02-28T12:05:12.261Z,135
2019-02-28T12:06:11.699Z,135
2019-02-28T12:07:11.278Z,140
2019-02-28T12:08:16.478Z,140
2019-02-28T12:09:11.242Z,140
2019-02-28T12:10:11.257Z,140
2019-02-28T12:11:12.272Z,140
2019-02-28T12:12:14.876Z,140
2019-02-28T12:13:11.220Z,140
2019-02-28T12:14:13.420Z,140
2019-02-28T12:15:15.124Z,140
2019-02-28T12:16:11.183Z,135
2019-02-28T12:17:10.675Z,140
2019-02-28T12:18:13.704Z,140
2019-02-28T12:19:12.425Z,140
2019-02-28T12:20:13.059Z,140
2019-02-28T12:21:13.824Z,140
2019-02-28T12:22:16.685Z,140
2019-02-28T12:23:11.127Z,140
2019-02-28T12:24:11.119Z,135
2019-02-28T12:25:14.776Z,135
2019-02-28T12:26:11.111Z,135
2019-02-28T12:27:11.310Z,135
2019-02-28T12:28:13.639Z,135
2019-02-28T12:29:14.929Z,135
2019-02-28T12:30:11.067Z,140
2019-02-28T12:31:10.805Z,140
2019-02-28T12:32:13.669Z,140
2019-02-28T12:33:10.803Z,145
2019-02-28T12:34:11.028Z,145
2019-02-28T12:35:11.976Z,150
2019-02-28T12:36:14.381Z,150
2019-02-28T12:37:11.002Z,145
2019-02-28T12:38:10.763Z,145
2019-02-28T12:39:11.834Z,145
2019-02-28T12:40:14.740Z,140
2019-02-28T12:41:10.980Z,135
2019-02-28T12:42:10.965Z,140
2019-02-28T12:43:13.718Z,140
2019-02-28T12:44:12.334Z,135
2019-02-28T12:45:10.724Z,140
2019-02-28T12:46:10.675Z,145
2019-02-28T12:47:14.326Z,150
2019-02-28T12:48:13.694Z,150
2019-02-28T12:49:10.897Z,150
2019-02-28T12:50:10.918Z,150
2019-02-28T12:51:14.397Z,145
2019-02-28T12:52:16.604Z,150
2019-02-28T12:53:10.615Z,150
2019-02-28T12:54:10.870Z,155
2019-02-28T12:55:13.697Z,155
2019-02-28T12:56:14.209Z,160
2019-02-28T12:57:10.824Z,160
2019-02-28T12:58:10.817Z,170
2019-02-28T12:59:12.164Z,175
2019-02-28T13:00:10.817Z,180
2019-02-28T13:01:10.860Z,185
2019-02-28T13:02:14.681Z,190
2019-02-28T13:03:11.660Z,190
2019-02-28T13:04:10.789Z,190
2019-02-28T13:05:18.136Z,195
2019-02-28T13:06:10.506Z,195
2019-02-28T13:07:10.737Z,200
2019-02-28T13:08:12.771Z,200
2019-02-28T13:09:13.571Z,200
2019-02-28T13:10:11.228Z,200
2019-02-28T13:11:14.106Z,200
2019-02-28T13:12:14.315Z,200
2019-02-28T13:13:16.112Z,200
2019-02-28T13:14:14.700Z,200
2019-02-28T13:15:12.999Z,200
2019-02-28T13:16:10.414Z,200
2019-02-28T13:17:10.400Z,195
2019-02-28T13:18:17.018Z,190
2019-02-28T13:19:10.648Z,195
2019-02-28T13:20:10.145Z,190
2019-02-28T13:21:17.187Z,185
2019-02-28T13:22:10.656Z,185
2019-02-28T13:23:10.550Z,185
2019-02-28T13:24:16.081Z,180
2019-02-28T13:25:11.788Z,180
2019-02-28T13:26:10.569Z,175
2019-02-28T13:27:14.665Z,175
2019-02-28T13:28:10.341Z,170
2019-02-28T13:29:12.509Z,165
2019-02-28T13:30:16.274Z,165
2019-02-28T13:31:10.588Z,160
2019-02-28T13:32:11.685Z,160
2019-02-28T13:33:17.019Z,160
2019-02-28T13:34:10.746Z,160
2019-02-28T13:35:16.479Z,160
2019-02-28T13:36:12.861Z,160
2019-02-28T13:37:12.725Z,160
2019-02-28T13:38:17.318Z,160
2019-02-28T13:39:10.463Z,155
2019-02-28T13:40:16.236Z,155
2019-02-28T13:41:10.249Z,150
2019-02-28T13:42:13.580Z,150
2019-02-28T13:43:19.547Z,155
2019-02-28T13:44:10.464Z,155
2019-02-28T13:45:25.044Z,155
2019-02-28T13:46:12.923Z,150
2019-02-28T13:47:16.720Z,150
2019-02-28T13:48:12.306Z,150
2019-02-28T13:49:15.735Z,145
2019-02-28T13:50:12.380Z,145
2019-02-28T13:51:15.687Z,145
2019-02-28T13:52:10.977Z,145
2019-02-28T13:53:26.996Z,145
2019-02-28T13:54:15.339Z,150
2019-02-28T13:55:14.176Z,150
2019-02-28T13:56:11.946Z,150
2019-02-28T13:57:15.354Z,150
2019-02-28T13:58:10.320Z,150
2019-02-28T13:59:10.307Z,150
2019-02-28T14:00:15.193Z,155
2019-02-28T14:01:10.275Z,155
2019-02-28T14:02:10.017Z,155
2019-02-28T14:03:19.349Z,155
2019-02-28T14:04:10.262Z,150
2019-02-28T14:05:13.416Z,140
2019-02-28T14:06:11.632Z,130
2019-02-28T14:07:12.221Z,135
2019-02-28T14:08:17.198Z,140
2019-02-28T14:09:10.220Z,140
2019-02-28T14:10:11.437Z,140
2019-02-28T14:11:15.654Z,140
2019-02-28T14:12:10.190Z,135
2019-02-28T14:13:10.255Z,135
2019-02-28T14:14:13.515Z,130
2019-02-28T14:15:09.942Z,130